Time;durP1;ratioP1;P1;durP2;ratioP2;P2;SDS_P1;SDS_P2;PMS_P1;PMS_P2;Temp;Humidity;BMP_temperature;BMP_pressure;BME280_temperature;BME280_humidity;BME280_pressure;Samples;Min_cycle;Max_cycle;Signal;HPM_P1;HPM_P2
2021/06/04 00:00:12;;;;;;;9.43;4.77;;;;;;;15.61;57.34;100979.44;4916373;29;20530;-60
2021/06/04 00:02:39;;;;;;;11.80;4.80;;;;;;;15.63;57.35;100977.97;4916336;29;20060;-63
2021/06/04 00:05:08;;;;;;;13.40;5.20;;;;;;;15.58;57.24;100971.59;4916462;29;20127;-63
2021/06/04 00:07:35;;;;;;;13.27;4.03;;;;;;;15.47;57.27;100958.81;4916543;29;20131;-63
2021/06/04 00:10:10;;;;;;;13.33;4.40;;;;;;;15.62;57.24;100983.91;4918272;29;20087;-63
2021/06/04 00:12:38;;;;;;;9.10;3.77;;;;;;;15.62;57.29;100984.78;4919744;29;20503;-63
2021/06/04 00:15:15;;;;;;;7.00;3.30;;;;;;;15.60;57.32;100986.22;4903507;29;20453;-64
2021/06/04 00:17:43;;;;;;;6.40;3.80;;;;;;;15.52;57.21;100973.66;4920052;29;20056;-63
2021/06/04 00:20:15;;;;;;;7.43;4.13;;;;;;;15.58;57.39;100985.66;4919393;29;20079;-64
2021/06/04 00:22:42;;;;;;;9.57;3.80;;;;;;;15.58;57.39;100988.47;4919693;29;20532;-64
2021/06/04 00:25:10;;;;;;;13.17;4.03;;;;;;;15.29;57.23;100940.78;4919853;29;20135;-63
2021/06/04 00:27:36;;;;;;;8.73;3.43;;;;;;;15.54;57.22;100990.22;4919802;29;20131;-70
2021/06/04 00:30:06;;;;;;;13.70;3.33;;;;;;;15.55;57.48;100986.25;4919551;29;20135;-67
2021/06/04 00:32:33;;;;;;;10.13;3.67;;;;;;;15.38;57.29;100972.72;4919855;29;20130;-69
2021/06/04 00:35:00;;;;;;;8.23;3.53;;;;;;;15.54;57.10;100995.84;4919659;29;20052;-67
2021/06/04 00:37:27;;;;;;;11.33;3.30;;;;;;;15.48;57.27;100983.00;4919529;29;20092;-71
2021/06/04 00:39:54;;;;;;;7.40;4.00;;;;;;;15.47;57.17;100978.50;4919454;29;20087;-68
2021/06/04 00:42:25;;;;;;;10.10;4.83;;;;;;;15.45;57.21;100975.16;4919687;29;20107;-65
2021/06/04 00:44:55;;;;;;;9.70;3.73;;;;;;;15.45;57.23;100983.59;4919679;29;20095;-61
2021/06/04 00:47:23;;;;;;;11.23;3.38;;;;;;;15.40;57.42;100979.72;4919188;29;20140;-60
2021/06/04 00:49:49;;;;;;;6.43;3.00;;;;;;;15.29;57.36;100966.94;4919441;29;20545;-60
2021/06/04 00:52:26;;;;;;;7.60;3.00;;;;;;;15.38;57.19;100976.38;4919275;29;20080;-60
2021/06/04 00:55:00;;;;;;;6.20;2.87;;;;;;;15.40;56.94;100976.06;4919168;29;20103;-66
2021/06/04 00:57:28;;;;;;;5.13;2.67;;;;;;;15.33;56.79;100962.38;4919314;29;20083;-63
2021/06/04 01:00:02;;;;;;;6.20;3.53;;;;;;;15.39;56.81;100988.47;4919536;29;20049;-66
2021/06/04 01:02:30;;;;;;;9.83;3.67;;;;;;;15.39;56.65;100977.22;4919372;29;20091;-65
2021/06/04 01:04:58;;;;;;;8.60;4.15;;;;;;;15.41;56.89;100989.81;4919090;29;20398;-66
2021/06/04 01:07:47;;;;;;;6.70;3.50;;;;;;;15.31;56.58;100973.06;4919119;29;20140;-66
2021/06/04 01:10:23;;;;;;;12.23;4.17;;;;;;;15.36;56.65;100987.09;4919278;29;20086;-68
2021/06/04 01:13:00;;;;;;;5.73;3.60;;;;;;;15.32;56.60;100983.22;4919092;29;20048;-65
2021/06/04 01:15:33;;;;;;;7.70;3.77;;;;;;;15.29;56.55;100983.81;4918855;29;20135;-64
2021/06/04 01:18:15;;;;;;;10.60;3.67;;;;;;;15.29;56.77;100989.44;4918891;29;20060;-64
2021/06/04 01:20:48;;;;;;;8.63;4.00;;;;;;;15.29;56.74;100978.19;4918355;29;20088;-64
2021/06/04 01:23:24;;;;;;;10.97;4.67;;;;;;;15.27;56.83;100996.50;4918501;29;20496;-64
2021/06/04 01:25:57;;;;;;;8.43;3.23;;;;;;;15.03;56.73;100957.16;4918919;29;20075;-63
2021/06/04 01:28:30;;;;;;;8.00;4.23;;;;;;;15.19;56.89;100978.31;4918832;29;20126;-68
2021/06/04 01:31:06;;;;;;;9.03;3.93;;;;;;;15.15;56.78;100982.88;4919799;29;20052;-68
2021/06/04 01:33:43;;;;;;;7.63;4.13;;;;;;;15.10;57.01;100977.31;4918549;29;20154;-63
2021/06/04 01:36:16;;;;;;;13.87;3.93;;;;;;;14.97;57.14;100966.78;4918908;29;20084;-61
2021/06/04 01:38:45;;;;;;;8.87;3.70;;;;;;;14.96;57.25;100963.13;4918469;29;20142;-62
2021/06/04 01:41:15;;;;;;;8.60;3.95;;;;;;;15.06;57.16;100993.94;4918676;29;20127;-62
2021/06/04 01:43:51;;;;;;;8.98;4.13;;;;;;;15.02;57.21;100986.41;4918719;29;20119;-61
2021/06/04 01:46:27;;;;;;;11.33;4.23;;;;;;;14.99;57.27;100987.00;4918620;29;20123;-62
2021/06/04 01:48:57;;;;;;;10.00;4.10;;;;;;;15.01;57.43;100973.47;4918511;29;20052;-62
2021/06/04 01:51:37;;;;;;;13.23;5.13;;;;;;;14.98;57.20;100993.78;4918271;29;20051;-61
2021/06/04 01:54:13;;;;;;;9.10;4.25;;;;;;;14.92;57.46;100985.41;4918528;29;20079;-61
2021/06/04 01:56:49;;;;;;;11.10;4.60;;;;;;;14.77;57.38;100965.91;4918512;29;20206;-61
2021/06/04 01:59:22;;;;;;;8.63;4.93;;;;;;;14.91;57.65;100989.34;4918818;29;20075;-62
2021/06/04 02:01:51;;;;;;;12.10;4.70;;;;;;;14.85;57.77;100979.28;4918031;29;20519;-64
2021/06/04 02:04:26;;;;;;;11.17;4.13;;;;;;;14.89;57.78;100993.59;4917972;29;20063;-63
2021/06/04 02:06:54;;;;;;;11.10;4.97;;;;;;;14.78;57.78;100989.22;4918139;29;20070;-61
2021/06/04 02:09:23;;;;;;;11.20;3.80;;;;;;;14.84;57.78;100994.50;4917823;29;20055;-60
2021/06/04 02:11:50;;;;;;;9.63;4.67;;;;;;;14.45;57.79;100944.84;4918055;29;20083;-63
2021/06/04 02:14:43;;;;;;;6.90;4.40;;;;;;;14.75;57.95;100996.28;4916679;29;20369;-63
2021/06/04 02:17:47;;;;;;;9.37;4.47;;;;;;;14.71;57.77;101000.00;4912398;29;20103;-63
2021/06/04 02:20:39;;;;;;;10.93;4.63;;;;;;;14.66;57.98;100998.88;4918397;29;20079;-63
2021/06/04 02:23:26;;;;;;;6.37;4.03;;;;;;;14.60;58.30;100999.28;4917676;29;20056;-63
2021/06/04 02:26:17;;;;;;;8.67;4.50;;;;;;;14.50;58.30;100990.91;4917734;29;20148;-63
2021/06/04 02:28:55;;;;;;;9.73;4.13;;;;;;;14.39;58.38;100982.56;4918397;29;20495;-63
2021/06/04 02:31:40;;;;;;;10.13;4.27;;;;;;;14.45;58.67;100992.59;4916321;29;20147;-63
2021/06/04 02:34:16;;;;;;;6.40;3.80;;;;;;;14.46;58.50;100985.00;4917081;29;20099;-62
2021/06/04 02:36:48;;;;;;;14.57;4.83;;;;;;;14.47;58.73;100983.91;4917455;29;20545;-63
2021/06/04 02:39:20;;;;;;;15.13;4.10;;;;;;;14.19;58.65;100941.47;4917699;29;20079;-63
2021/06/04 02:42:00;;;;;;;8.53;4.70;;;;;;;14.45;58.66;100987.00;4917265;29;20131;-63
2021/06/04 02:44:32;;;;;;;9.60;3.80;;;;;;;14.46;58.59;100982.19;4917474;29;20142;-63
2021/06/04 02:47:16;;;;;;;9.70;4.17;;;;;;;14.42;58.58;100990.38;4917561;29;20433;-63
2021/06/04 02:49:43;;;;;;;7.00;3.93;;;;;;;14.44;58.86;100988.13;4917464;29;20079;-63
2021/06/04 02:52:29;;;;;;;7.27;3.80;;;;;;;14.36;58.74;100977.53;4917416;29;20075;-62
2021/06/04 02:54:58;;;;;;;13.03;4.10;;;;;;;14.39;58.87;100976.97;4917148;29;20084;-63
2021/06/04 02:57:28;;;;;;;10.17;4.03;;;;;;;14.31;59.01;100977.56;4918093;29;20464;-63
2021/06/04 02:59:55;;;;;;;;;;;;;;;14.34;58.60;100985.41;4917546;29;20094;-62
2021/06/04 03:02:27;;;;;;;5.60;3.43;;;;;;;14.33;58.95;100980.09;4916991;29;20017;-63
2021/06/04 03:04:57;;;;;;;8.07;4.27;;;;;;;14.28;59.01;100980.97;4917007;29;20134;-64
2021/06/04 03:07:26;;;;;;;;;;;;;;;14.32;58.44;100987.66;4917332;29;20131;-63
2021/06/04 03:09:55;;;;;;;9.05;4.15;;;;;;;14.27;58.87;100979.31;4917301;29;20006;-63
2021/06/04 03:12:27;;;;;;;8.27;3.17;;;;;;;14.23;59.13;100990.28;4916959;29;20091;-63
2021/06/04 03:14:56;;;;;;;13.27;3.80;;;;;;;14.21;59.05;100972.06;4918016;29;20079;-63
2021/06/04 03:17:27;;;;;;;8.30;3.73;;;;;;;14.20;59.16;100967.59;4916822;29;20060;-63
2021/06/04 03:19:53;;;;;;;7.90;3.80;;;;;;;14.20;59.24;100982.47;4916795;29;20135;-63
2021/06/04 03:22:27;;;;;;;7.37;3.77;;;;;;;14.16;59.25;100966.50;4916834;29;20144;-63
2021/06/04 03:24:56;;;;;;;6.27;3.40;;;;;;;14.21;59.05;100986.94;4916951;29;20059;-62
2021/06/04 03:27:22;;;;;;;8.90;3.43;;;;;;;14.14;59.21;100968.75;4916729;29;20123;-60
2021/06/04 03:29:51;;;;;;;5.73;3.33;;;;;;;14.18;59.20;100970.66;4916728;29;20080;-60
2021/06/04 03:32:19;;;;;;;7.43;3.93;;;;;;;14.08;59.10;100959.53;4916728;29;20135;-60
2021/06/04 03:34:47;;;;;;;7.67;3.17;;;;;;;14.25;59.09;100981.56;4916748;29;20131;-60
2021/06/04 03:37:17;;;;;;;6.97;3.87;;;;;;;14.20;59.03;100970.38;4916639;29;20087;-60
2021/06/04 03:39:45;;;;;;;15.35;4.38;;;;;;;14.21;58.97;100970.09;4916523;29;20084;-60
2021/06/04 03:42:27;;;;;;;12.10;4.73;;;;;;;14.18;58.84;100981.06;4915460;29;20541;-60
2021/06/04 03:44:56;;;;;;;5.73;3.93;;;;;;;14.18;59.06;100981.06;4919794;29;20062;-60
2021/06/04 03:47:23;;;;;;;6.87;3.57;;;;;;;14.03;58.93;100972.78;4921380;29;20131;-60
2021/06/04 03:49:50;;;;;;;7.10;3.80;;;;;;;14.12;59.13;100987.84;4920345;29;20136;-60
2021/06/04 03:52:23;;;;;;;6.57;4.20;;;;;;;14.06;59.03;100977.81;4919352;29;20469;-60
2021/06/04 03:54:53;;;;;;;5.13;3.47;;;;;;;14.02;59.13;100983.19;4920555;29;20127;-61
2021/06/04 03:57:22;;;;;;;;;;;;;;;14.01;58.79;100975.03;4920735;29;20054;-62
2021/06/04 03:59:49;;;;;;;8.33;3.83;;;;;;;13.93;59.07;100980.16;4920197;29;19974;-61
2021/06/04 04:02:21;;;;;;;6.83;3.87;;;;;;;13.91;59.38;100975.94;4920282;29;20505;-61
2021/06/04 04:04:48;;;;;;;8.53;4.70;;;;;;;13.86;59.50;100968.41;4903636;29;20131;-61
2021/06/04 04:07:15;;;;;;;7.73;4.37;;;;;;;13.95;59.41;100971.44;4920101;29;20143;-64
2021/06/04 04:09:42;;;;;;;11.73;3.23;;;;;;;13.95;59.38;100975.09;4920317;29;20075;-64
2021/06/04 04:12:10;;;;;;;8.47;3.50;;;;;;;13.95;59.32;100982.69;4920232;29;20100;-64
2021/06/04 04:14:37;;;;;;;7.17;3.93;;;;;;;13.94;59.26;100976.19;4919954;29;20135;-59
2021/06/04 04:17:05;;;;;;;9.30;3.80;;;;;;;13.92;59.25;100970.06;4919738;29;20123;-64
2021/06/04 04:19:31;;;;;;;11.37;4.20;;;;;;;13.94;59.25;100973.41;4920129;29;20044;-62
2021/06/04 04:21:58;;;;;;;8.23;4.17;;;;;;;13.92;59.34;100961.63;4919852;29;20127;-63
2021/06/04 04:24:32;;;;;;;8.60;3.70;;;;;;;13.94;59.07;100976.19;4920246;29;20098;-62
2021/06/04 04:27:00;;;;;;;7.57;3.77;;;;;;;13.90;59.20;100972.31;4919649;29;20055;-64
2021/06/04 04:29:27;;;;;;;7.17;4.33;;;;;;;13.91;59.24;100975.94;4919672;29;20084;-61
2021/06/04 04:31:58;;;;;;;7.07;4.30;;;;;;;13.79;59.18;100967.91;4920006;29;20052;-58
2021/06/04 04:34:26;;;;;;;7.03;4.37;;;;;;;13.84;59.44;100976.28;4919947;29;20127;-59
2021/06/04 04:36:58;;;;;;;10.90;4.80;;;;;;;13.82;59.39;100978.56;4919548;29;20083;-60
2021/06/04 04:39:34;;;;;;;8.70;3.73;;;;;;;13.64;59.40;100959.59;4919552;29;20084;-60
2021/06/04 04:42:04;;;;;;;6.83;4.03;;;;;;;13.81;59.50;100996.53;4919562;29;20091;-62
2021/06/04 04:44:34;;;;;;;8.05;4.00;;;;;;;13.78;59.40;100994.31;4919539;29;20430;-63
2021/06/04 04:47:04;;;;;;;6.40;4.15;;;;;;;13.78;59.57;100994.31;4919711;29;20131;-63
2021/06/04 04:49:31;;;;;;;7.95;3.90;;;;;;;13.74;59.56;100998.81;4919436;29;20048;-59
2021/06/04 04:51:58;;;;;;;8.90;4.03;;;;;;;13.74;59.46;101004.44;4919334;29;20135;-60
2021/06/04 04:54:26;;;;;;;7.40;3.70;;;;;;;13.74;59.49;101007.22;4919294;29;20112;-60
2021/06/04 04:56:53;;;;;;;7.80;3.90;;;;;;;13.70;59.44;101008.94;4918734;29;20055;-60
2021/06/04 04:59:20;;;;;;;7.33;4.30;;;;;;;13.69;59.52;101007.28;4919950;29;20131;-62
2021/06/04 05:01:47;;;;;;;6.63;3.77;;;;;;;13.61;59.58;100989.09;4919518;29;20052;-62
2021/06/04 05:04:14;;;;;;;5.70;3.80;;;;;;;13.78;59.35;101016.78;4919133;29;20099;-62
2021/06/04 05:06:40;;;;;;;4.33;3.37;;;;;;;13.79;59.51;101024.06;4919082;29;20139;-69
2021/06/04 05:09:08;;;;;;;5.67;3.53;;;;;;;13.75;59.55;101017.34;4902720;29;20114;-62
2021/06/04 05:11:35;;;;;;;6.57;3.10;;;;;;;13.73;59.57;101016.78;4919074;29;20134;-64
2021/06/04 05:14:03;;;;;;;5.57;2.70;;;;;;;13.74;59.42;101004.44;4918992;29;20083;-63
2021/06/04 05:16:30;;;;;;;6.67;3.97;;;;;;;13.82;59.46;101015.06;4918986;29;20087;-59
2021/06/04 05:18:57;;;;;;;5.50;3.03;;;;;;;13.85;59.32;101022.91;4918858;29;20095;-64
2021/06/04 05:21:24;;;;;;;5.33;3.23;;;;;;;13.91;59.29;101021.75;4919041;29;20134;-61
2021/06/04 05:23:52;;;;;;;6.87;3.47;;;;;;;13.97;59.12;101031.78;4918765;29;20094;-61
2021/06/04 05:26:20;;;;;;;7.03;3.07;;;;;;;14.01;59.08;101022.78;4919117;29;20087;-61
2021/06/04 05:28:47;;;;;;;7.07;3.63;;;;;;;14.10;59.11;101035.06;4918713;29;20127;-60
2021/06/04 05:31:15;;;;;;;6.03;3.20;;;;;;;13.89;58.84;100976.25;4918443;29;20135;-62
2021/06/04 05:33:44;;;;;;;4.67;2.80;;;;;;;14.39;58.80;101035.09;4918452;29;20087;-59
2021/06/04 05:36:17;;;;;;;9.83;3.77;;;;;;;14.57;58.52;101053.25;4918865;29;20124;-60
2021/06/04 05:38:47;;;;;;;6.60;4.03;;;;;;;14.65;58.24;101033.75;4918723;29;20123;-60
2021/06/04 05:41:15;;;;;;;4.33;2.60;;;;;;;14.72;58.17;101019.38;4918465;29;20458;-63
2021/06/04 05:43:44;;;;;;;4.07;2.70;;;;;;;14.97;58.22;101054.78;4918171;29;20130;-59
2021/06/04 05:46:15;;;;;;;3.83;2.77;;;;;;;15.13;58.01;101061.09;4918549;29;20131;-60
2021/06/04 05:48:42;;;;;;;7.07;2.83;;;;;;;15.27;57.87;101059.25;4917160;29;20052;-61
2021/06/04 05:51:21;;;;;;;5.87;2.63;;;;;;;15.38;57.72;101060.81;4918295;29;20095;-60
2021/06/04 05:53:48;;;;;;;5.33;2.47;;;;;;;15.49;57.48;101043.78;4918212;29;20055;-60
2021/06/04 05:56:17;;;;;;;5.73;2.53;;;;;;;15.87;56.98;101075.66;4918331;29;20135;-60
2021/06/04 05:58:45;;;;;;;4.03;2.27;;;;;;;16.08;56.48;101084.66;4918234;29;20048;-60
2021/06/04 06:01:17;;;;;;;4.33;2.47;;;;;;;16.29;56.62;101073.91;4918159;29;20092;-63
2021/06/04 06:03:44;;;;;;;6.17;2.73;;;;;;;16.56;56.53;101084.44;4918447;29;20162;-59
2021/06/04 06:06:13;;;;;;;3.60;2.13;;;;;;;16.71;56.22;101081.34;4902192;29;20083;-60
2021/06/04 06:08:42;;;;;;;7.97;2.57;;;;;;;16.79;56.01;101074.22;4918029;29;20083;-59
2021/06/04 06:11:10;;;;;;;6.83;3.00;;;;;;;16.72;55.60;101045.56;4917771;29;20135;-60
2021/06/04 06:13:38;;;;;;;6.80;2.47;;;;;;;17.07;55.69;101094.03;4917794;29;20135;-59
2021/06/04 06:16:06;;;;;;;7.97;3.83;;;;;;;17.19;55.33;101086.69;4918006;29;20416;-59
2021/06/04 06:18:33;;;;;;;8.80;2.97;;;;;;;17.12;54.90;101063.69;4917569;29;20074;-60
2021/06/04 06:21:01;;;;;;;5.50;3.37;;;;;;;17.15;54.94;101074.38;4917611;29;20087;-59
2021/06/04 06:23:31;;;;;;;6.50;3.20;;;;;;;17.27;55.18;101093.63;4917768;29;20130;-59
2021/06/04 06:26:01;;;;;;;;;;;;;;;17.22;55.95;101090.88;4918145;29;20131;-60
2021/06/04 06:28:33;;;;;;;6.78;3.15;;;;;;;17.32;54.92;101089.84;4917973;29;20005;-60
2021/06/04 06:31:06;;;;;;;5.25;2.40;;;;;;;17.34;54.72;101081.91;4917510;29;20087;-60
2021/06/04 06:33:34;;;;;;;8.18;1.80;;;;;;;17.59;54.20;101098.31;4917826;29;20449;-60
2021/06/04 06:36:05;;;;;;;5.97;2.45;;;;;;;17.80;53.22;101098.75;4917661;29;20055;-64
2021/06/04 06:38:33;;;;;;;3.58;2.35;;;;;;;18.03;52.79;101094.00;4917520;29;20135;-61
2021/06/04 06:41:04;;;;;;;5.63;2.35;;;;;;;18.17;52.47;101094.78;4917420;29;20091;-59
2021/06/04 06:43:33;;;;;;;4.47;3.13;;;;;;;18.34;52.05;101096.09;4917742;29;20082;-59
2021/06/04 06:46:01;;;;;;;5.07;2.53;;;;;;;18.40;51.52;101069.38;4917439;29;20059;-59
2021/06/04 06:48:28;;;;;;;4.10;2.47;;;;;;;18.66;51.04;101095.84;4900397;29;20362;-59
2021/06/04 06:50:56;;;;;;;6.03;2.65;;;;;;;18.46;50.61;101029.34;4917349;29;20104;-59
2021/06/04 06:53:25;;;;;;;4.43;2.15;;;;;;;18.77;49.91;101056.88;4916057;29;20127;-59
2021/06/04 06:55:54;;;;;;;6.63;3.63;;;;;;;19.07;50.15;101089.13;4916896;29;20126;-60
2021/06/04 06:58:22;;;;;;;4.25;2.55;;;;;;;19.18;49.65;101090.53;4917205;29;20122;-60
2021/06/04 07:00:52;;;;;;;7.05;3.60;;;;;;;19.25;49.03;101090.06;4917035;29;20083;-60
2021/06/04 07:03:28;;;;;;;6.75;3.13;;;;;;;19.32;49.17;101089.59;4917048;29;20151;-60
2021/06/04 07:05:58;;;;;;;6.00;2.60;;;;;;;19.11;48.85;101047.72;4917246;29;20110;-59
2021/06/04 07:08:25;;;;;;;6.40;2.90;;;;;;;19.46;48.34;101096.00;4916650;29;20091;-60
2021/06/04 07:10:52;;;;;;;7.30;2.05;;;;;;;19.47;48.03;101088.31;4917242;29;20131;-59
2021/06/04 07:13:25;;;;;;;6.15;2.78;;;;;;;19.57;47.99;101096.53;4916732;29;20056;-60
2021/06/04 07:15:54;;;;;;;6.45;2.20;;;;;;;19.75;47.92;101091.78;4916782;29;20048;-60
2021/06/04 07:18:21;;;;;;;5.75;2.30;;;;;;;19.86;47.96;101104.47;4916242;29;20486;-59
2021/06/04 07:20:49;;;;;;;3.58;1.55;;;;;;;19.96;47.53;101098.47;4916542;29;20103;-60
2021/06/04 07:23:16;;;;;;;4.93;2.00;;;;;;;20.02;47.19;101102.00;4916780;29;20123;-59
2021/06/04 07:25:46;;;;;;;3.40;1.92;;;;;;;20.11;46.86;101095.19;4916548;29;20072;-60
2021/06/04 07:28:15;;;;;;;2.72;1.80;;;;;;;20.30;46.54;101102.50;4899883;29;20094;-59
2021/06/04 07:30:46;;;;;;;5.97;2.20;;;;;;;20.38;46.46;101087.53;4916693;29;20131;-59
2021/06/04 07:33:22;;;;;;;6.70;2.33;;;;;;;20.47;46.16;101096.84;4916685;29;20090;-60
2021/06/04 07:35:51;;;;;;;3.40;1.85;;;;;;;20.64;46.07;101090.34;4916479;29;20102;-59
2021/06/04 07:38:19;;;;;;;5.22;1.80;;;;;;;21.23;45.39;101098.22;4916978;29;20115;-60
2021/06/04 07:40:46;;;;;;;3.35;1.73;;;;;;;21.71;44.82;101082.84;4916743;29;20127;-60
2021/06/04 07:43:16;;;;;;;4.15;2.00;;;;;;;22.13;43.86;101089.41;4915515;29;20143;-59
2021/06/04 07:45:44;;;;;;;3.58;1.40;;;;;;;22.41;43.39;101095.41;4916996;29;20469;-60
2021/06/04 07:48:13;;;;;;;2.65;1.70;;;;;;;22.39;43.17;101103.47;4917292;29;20519;-61
2021/06/04 07:50:43;;;;;;;5.35;2.17;;;;;;;22.03;43.26;101101.19;4916654;29;20052;-61
2021/06/04 07:53:13;;;;;;;4.18;1.83;;;;;;;21.88;43.57;101096.97;4916884;29;20087;-61
2021/06/04 07:55:41;;;;;;;4.93;2.13;;;;;;;21.74;43.56;101102.03;4916928;29;20127;-61
2021/06/04 07:58:08;;;;;;;4.57;1.73;;;;;;;21.64;43.38;101091.91;4916894;29;20094;-61
2021/06/04 08:00:37;;;;;;;4.07;1.70;;;;;;;21.61;43.42;101091.75;4916657;29;20568;-61
2021/06/04 08:03:13;;;;;;;5.75;1.45;;;;;;;21.57;43.38;101100.13;4916869;29;20115;-61
2021/06/04 08:05:40;;;;;;;4.65;1.55;;;;;;;21.53;43.48;101108.50;4917230;29;20127;-61
2021/06/04 08:08:09;;;;;;;5.25;1.70;;;;;;;21.52;43.49;101103.16;4916628;29;20140;-61
2021/06/04 08:10:38;;;;;;;3.75;1.50;;;;;;;21.64;43.12;101106.13;4916568;29;20087;-61
2021/06/04 08:13:07;;;;;;;5.07;1.90;;;;;;;21.83;43.31;101108.50;4916471;29;20520;-61
2021/06/04 08:15:40;;;;;;;2.25;1.23;;;;;;;22.00;42.91;101090.50;4916629;29;20139;-62
2021/06/04 08:18:07;;;;;;;2.13;1.25;;;;;;;22.31;41.89;101112.91;4916713;29;20083;-61
2021/06/04 08:20:37;;;;;;;3.05;1.50;;;;;;;22.37;41.69;101105.81;4916765;29;20123;-61
2021/06/04 08:23:10;;;;;;;6.07;1.88;;;;;;;22.47;41.33;101096.88;4916443;29;20134;-61
2021/06/04 08:25:41;;;;;;;3.78;1.33;;;;;;;22.53;40.97;101105.19;4916370;29;20143;-61
2021/06/04 08:28:09;;;;;;;5.85;1.73;;;;;;;22.62;40.42;101105.94;4916375;29;20115;-61
2021/06/04 08:30:37;;;;;;;3.25;1.48;;;;;;;22.73;40.23;101112.88;4917490;29;20052;-61
2021/06/04 08:33:05;;;;;;;4.68;1.63;;;;;;;22.78;40.55;101124.06;4920066;29;20083;-61
2021/06/04 08:35:32;;;;;;;2.85;1.48;;;;;;;22.77;40.10;101096.78;4920146;29;20445;-61
2021/06/04 08:38:00;;;;;;;2.85;1.08;;;;;;;23.04;40.05;101122.97;4920012;29;20075;-61
2021/06/04 08:40:34;;;;;;;2.10;1.20;;;;;;;23.02;39.64;101102.56;4920186;29;20127;-61
2021/06/04 08:43:33;;;;;;;4.78;1.33;;;;;;;23.18;39.81;101123.50;4919632;29;20052;-61
2021/06/04 08:46:22;;;;;;;10.43;1.30;;;;;;;23.32;39.14;101124.00;4920137;29;20552;-61
2021/06/04 08:49:07;;;;;;;3.05;1.02;;;;;;;23.42;39.02;101117.84;4920115;29;20048;-61
2021/06/04 08:51:43;;;;;;;4.50;1.02;;;;;;;23.70;37.95;101122.06;4903020;29;20131;-62
2021/06/04 08:54:31;;;;;;;2.55;1.05;;;;;;;23.73;37.57;101122.19;4919573;29;20135;-63
2021/06/04 08:57:25;;;;;;;1.75;1.10;;;;;;;23.88;37.65;101124.31;4919464;29;20134;-63
2021/06/04 08:59:55;;;;;;;3.90;1.42;;;;;;;23.97;36.77;101126.22;4919657;29;20090;-62
2021/06/04 09:02:35;;;;;;;2.72;1.48;;;;;;;24.06;36.45;101118.34;4919388;29;20091;-63
2021/06/04 09:05:10;;;;;;;4.80;1.27;;;;;;;24.09;36.59;101114.78;4920379;29;20139;-62
2021/06/04 09:07:42;;;;;;;2.38;1.20;;;;;;;24.22;35.98;101105.00;4919262;29;20560;-62
2021/06/04 09:10:15;;;;;;;1.75;0.95;;;;;;;24.31;35.83;101102.84;4919235;29;20131;-62
2021/06/04 09:12:48;;;;;;;2.53;1.40;;;;;;;24.35;35.61;101105.81;4919499;29;20470;-62
2021/06/04 09:15:20;;;;;;;2.17;1.20;;;;;;;24.46;35.51;101095.56;4919433;29;20044;-61
2021/06/04 09:17:52;;;;;;;1.92;1.13;;;;;;;24.64;35.13;101093.22;4919168;29;20482;-61
2021/06/04 09:20:22;;;;;;;1.92;1.40;;;;;;;24.82;34.59;101091.75;4919032;29;20107;-61
2021/06/04 09:22:57;;;;;;;1.10;1.00;;;;;;;24.89;34.19;101075.97;4918960;29;20139;-61
2021/06/04 09:25:27;;;;;;;5.68;1.30;;;;;;;24.88;34.00;101089.44;4918802;29;20095;-61
2021/06/04 09:28:08;;;;;;;3.08;1.13;;;;;;;25.02;34.65;101097.56;4919178;29;20438;-62
2021/06/04 09:30:45;;;;;;;2.72;1.13;;;;;;;25.18;34.10;101089.88;4919077;29;20075;-62
2021/06/04 09:33:18;;;;;;;1.85;1.30;;;;;;;25.44;33.52;101097.13;4918696;29;20095;-61
2021/06/04 09:36:05;;;;;;;4.40;2.20;;;;;;;25.58;33.53;101106.06;4918621;29;20052;-61
2021/06/04 09:38:53;;;;;;;2.67;1.60;;;;;;;25.77;33.08;101111.84;4918785;29;20071;-62
2021/06/04 09:41:23;;;;;;;4.25;1.45;;;;;;;25.94;33.15;101110.63;4918112;29;20139;-62
2021/06/04 09:44:04;;;;;;;5.28;1.25;;;;;;;25.85;32.61;101090.00;4918495;29;20080;-61
2021/06/04 09:46:40;;;;;;;3.58;1.55;;;;;;;26.05;32.65;101105.19;4918804;29;20134;-61
2021/06/04 09:49:08;;;;;;;1.95;1.30;;;;;;;25.96;32.67;101067.34;4918499;29;20083;-61
2021/06/04 09:51:38;;;;;;;1.67;1.23;;;;;;;26.36;31.83;101110.00;4918469;29;20497;-61
2021/06/04 09:54:28;;;;;;;2.90;1.50;;;;;;;26.18;32.13;101103.84;4918662;29;20052;-61
2021/06/04 09:57:07;;;;;;;2.03;1.08;;;;;;;26.07;32.10;101108.50;4918346;29;20083;-61
2021/06/04 09:59:35;;;;;;;2.35;1.55;;;;;;;26.12;31.63;101101.66;4918276;29;20533;-61
2021/06/04 10:02:23;;;;;;;3.23;1.27;;;;;;;26.23;31.70;101105.59;4918590;29;20071;-62
2021/06/04 10:04:50;;;;;;;3.22;1.70;;;;;;;26.43;31.62;101106.47;4918138;29;20302;-62
2021/06/04 10:07:22;;;;;;;2.05;1.10;;;;;;;26.39;31.45;101076.91;4918089;29;20143;-62
2021/06/04 10:09:49;;;;;;;7.45;2.03;;;;;;;26.67;31.11;101103.34;4918087;29;20544;-62
2021/06/04 10:12:34;;;;;;;2.55;1.40;;;;;;;26.62;31.45;101083.56;4918302;29;20446;-62
2021/06/04 10:15:15;;;;;;;3.65;2.22;;;;;;;26.93;30.69;101113.25;4917974;29;20052;-62
2021/06/04 10:17:48;;;;;;;3.08;1.70;;;;;;;27.07;30.63;101084.03;4917996;29;20115;-62
2021/06/04 10:20:46;;;;;;;4.38;2.10;;;;;;;27.50;31.05;101105.75;4917893;29;20163;-62
2021/06/04 10:23:43;;;;;;;1.90;1.45;;;;;;;27.81;30.33;101104.66;4917883;29;20084;-62
2021/06/04 10:26:18;;;;;;;4.65;1.38;;;;;;;28.11;29.83;101106.78;4918436;29;20052;-62
2021/06/04 10:28:57;;;;;;;1.35;1.10;;;;;;;28.30;29.28;101102.94;4901341;29;20059;-62
2021/06/04 10:31:39;;;;;;;2.00;1.10;;;;;;;28.42;29.65;101090.44;4918010;29;20147;-63
2021/06/04 10:34:26;;;;;;;4.47;1.27;;;;;;;28.60;29.44;101094.34;4918011;29;20048;-62
2021/06/04 10:36:56;;;;;;;4.15;1.40;;;;;;;28.74;28.07;101085.91;4917670;29;20055;-62
2021/06/04 10:39:41;;;;;;;12.82;6.15;;;;;;;28.74;28.93;101070.72;4917552;29;20048;-61
2021/06/04 10:42:19;;;;;;;43.30;22.85;;;;;;;28.95;28.22;101096.00;4917839;29;20059;-62
2021/06/04 10:44:59;;;;;;;27.33;14.65;;;;;;;28.77;27.49;101095.78;4917552;29;20135;-62
2021/06/04 10:47:45;;;;;;;6.57;3.53;;;;;;;28.68;28.11;101090.34;4917395;29;20142;-62
2021/06/04 10:50:17;;;;;;;35.20;16.95;;;;;;;28.84;28.52;101080.69;4917321;29;20056;-62
2021/06/04 10:52:47;;;;;;;10.50;6.82;;;;;;;28.79;29.09;101084.75;4917312;29;20048;-62
2021/06/04 10:55:35;;;;;;;6.03;2.47;;;;;;;28.74;29.75;101097.41;4917525;29;20464;-62
2021/06/04 10:58:12;;;;;;;5.05;2.28;;;;;;;28.68;29.84;101096.09;4917561;29;20059;-62
2021/06/04 11:01:18;;;;;;;2.88;1.75;;;;;;;28.74;29.77;101087.94;4917300;29;20095;-62
2021/06/04 11:04:09;;;;;;;4.00;2.72;;;;;;;28.86;29.65;101089.75;4913206;29;20048;-63
2021/06/04 11:06:59;;;;;;;7.47;2.72;;;;;;;28.87;29.65;101072.09;4917186;29;20091;-63
2021/06/04 11:09:34;;;;;;;2.15;1.63;;;;;;;28.97;29.96;101093.56;4917534;29;20101;-62
2021/06/04 11:12:09;;;;;;;5.55;2.25;;;;;;;28.93;29.68;101086.97;4917149;29;20052;-62
2021/06/04 11:14:45;;;;;;;4.30;2.78;;;;;;;29.05;29.84;101078.88;4917122;29;20059;-63
2021/06/04 11:17:20;;;;;;;6.07;2.00;;;;;;;29.17;29.84;101076.97;4900436;29;20127;-63
2021/06/04 11:19:53;;;;;;;2.85;1.80;;;;;;;29.27;29.69;101070.50;4916974;29;20087;-63
2021/06/04 11:22:26;;;;;;;4.88;2.50;;;;;;;29.17;29.60;101069.16;4917284;29;20123;-61
2021/06/04 11:25:02;;;;;;;5.30;2.28;;;;;;;29.18;29.56;101067.94;4917000;29;20091;-62
2021/06/04 11:27:38;;;;;;;7.35;1.90;;;;;;;29.12;29.52;101065.81;4916731;29;20139;-63
2021/06/04 11:30:13;;;;;;;3.83;2.10;;;;;;;28.98;29.56;101067.28;4916904;29;20130;-62
2021/06/04 11:32:58;;;;;;;3.65;2.22;;;;;;;29.03;29.77;101058.34;4916894;29;20044;-62
2021/06/04 11:35:30;;;;;;;2.78;1.60;;;;;;;29.07;29.26;101055.50;4916891;29;20058;-61
2021/06/04 11:38:01;;;;;;;4.88;2.38;;;;;;;29.32;29.29;101067.25;4900131;29;20062;-61
2021/06/04 11:40:33;;;;;;;3.35;1.80;;;;;;;29.36;29.15;101055.78;4916738;29;20139;-62
2021/06/04 11:43:09;;;;;;;3.67;2.00;;;;;;;29.50;29.03;101062.50;4917103;29;20523;-62
2021/06/04 11:45:37;;;;;;;7.07;2.55;;;;;;;29.77;28.66;101050.78;4917858;29;20123;-63
2021/06/04 11:48:26;;;;;;;3.47;1.75;;;;;;;29.87;28.98;101064.44;4917039;29;20091;-62